sensor_id;sensor_type;location;lat;lon;timestamp;temperature;humidity
43697;DHT22;29301;47.620;19.560;2023-03-01T00:01:02;5.00;57.70
43697;DHT22;29301;47.620;19.560;2023-03-01T00:03:28;5.00;57.80
43697;DHT22;29301;47.620;19.560;2023-03-01T00:05:53;5.00;57.90
43697;DHT22;29301;47.620;19.560;2023-03-01T00:08:19;4.90;57.80
43697;DHT22;29301;47.620;19.560;2023-03-01T00:10:44;5.00;58.10
43697;DHT22;29301;47.620;19.560;2023-03-01T00:13:10;4.90;58.20
43697;DHT22;29301;47.620;19.560;2023-03-01T00:15:38;4.90;58.30
43697;DHT22;29301;47.620;19.560;2023-03-01T00:18:03;4.90;58.40
43697;DHT22;29301;47.620;19.560;2023-03-01T00:20:29;4.80;58.50
43697;DHT22;29301;47.620;19.560;2023-03-01T00:22:54;4.90;58.40
43697;DHT22;29301;47.620;19.560;2023-03-01T00:25:20;4.80;58.60
43697;DHT22;29301;47.620;19.560;2023-03-01T00:27:46;4.80;58.60
43697;DHT22;29301;47.620;19.560;2023-03-01T00:30:12;4.90;58.50
43697;DHT22;29301;47.620;19.560;2023-03-01T00:32:37;5.00;58.50
43697;DHT22;29301;47.620;19.560;2023-03-01T00:35:03;5.00;58.40
43697;DHT22;29301;47.620;19.560;2023-03-01T00:37:29;4.90;58.50
43697;DHT22;29301;47.620;19.560;2023-03-01T00:39:54;4.90;59.00
43697;DHT22;29301;47.620;19.560;2023-03-01T00:42:20;4.80;59.60
43697;DHT22;29301;47.620;19.560;2023-03-01T00:44:47;4.80;59.70
43697;DHT22;29301;47.620;19.560;2023-03-01T00:47:12;4.80;59.90
43697;DHT22;29301;47.620;19.560;2023-03-01T00:49:39;4.80;59.70
43697;DHT22;29301;47.620;19.560;2023-03-01T00:52:05;4.80;59.70
43697;DHT22;29301;47.620;19.560;2023-03-01T00:54:30;4.80;59.80
43697;DHT22;29301;47.620;19.560;2023-03-01T00:56:56;4.90;59.70
43697;DHT22;29301;47.620;19.560;2023-03-01T00:59:22;4.90;59.70
43697;DHT22;29301;47.620;19.560;2023-03-01T01:01:47;4.90;59.60
43697;DHT22;29301;47.620;19.560;2023-03-01T01:04:13;5.00;59.60
43697;DHT22;29301;47.620;19.560;2023-03-01T01:09:05;5.00;59.40
43697;DHT22;29301;47.620;19.560;2023-03-01T01:11:32;5.00;59.30
43697;DHT22;29301;47.620;19.560;2023-03-01T01:13:58;4.90;59.70
43697;DHT22;29301;47.620;19.560;2023-03-01T01:16:24;4.70;60.50
43697;DHT22;29301;47.620;19.560;2023-03-01T01:18:50;4.40;61.60
43697;DHT22;29301;47.620;19.560;2023-03-01T01:21:16;4.30;62.30
43697;DHT22;29301;47.620;19.560;2023-03-01T01:23:42;4.20;62.80
43697;DHT22;29301;47.620;19.560;2023-03-01T01:26:09;4.20;62.90
43697;DHT22;29301;47.620;19.560;2023-03-01T01:28:35;4.40;62.80
43697;DHT22;29301;47.620;19.560;2023-03-01T01:31:01;4.50;62.50
43697;DHT22;29301;47.620;19.560;2023-03-01T01:33:26;4.60;61.90
43697;DHT22;29301;47.620;19.560;2023-03-01T01:35:52;4.60;61.70
43697;DHT22;29301;47.620;19.560;2023-03-01T01:38:18;4.60;61.40
43697;DHT22;29301;47.620;19.560;2023-03-01T01:40:44;4.60;61.30
43697;DHT22;29301;47.620;19.560;2023-03-01T01:45:44;4.70;61.20
43697;DHT22;29301;47.620;19.560;2023-03-01T01:48:10;4.80;61.20
43697;DHT22;29301;47.620;19.560;2023-03-01T01:50:38;4.80;61.00
43697;DHT22;29301;47.620;19.560;2023-03-01T01:53:12;4.70;61.50
43697;DHT22;29301;47.620;19.560;2023-03-01T01:55:41;4.80;61.10
43697;DHT22;29301;47.620;19.560;2023-03-01T01:58:08;4.80;61.00
43697;DHT22;29301;47.620;19.560;2023-03-01T02:00:34;4.80;60.90
43697;DHT22;29301;47.620;19.560;2023-03-01T02:03:02;4.90;60.90
43697;DHT22;29301;47.620;19.560;2023-03-01T02:08:09;4.90;60.70
43697;DHT22;29301;47.620;19.560;2023-03-01T02:10:36;4.90;60.70
43697;DHT22;29301;47.620;19.560;2023-03-01T02:13:02;5.00;60.80
43697;DHT22;29301;47.620;19.560;2023-03-01T02:15:31;5.00;60.70
43697;DHT22;29301;47.620;19.560;2023-03-01T02:17:58;5.00;60.70
43697;DHT22;29301;47.620;19.560;2023-03-01T02:22:52;5.00;60.70
43697;DHT22;29301;47.620;19.560;2023-03-01T02:28:03;5.10;60.60
43697;DHT22;29301;47.620;19.560;2023-03-01T02:30:30;5.10;60.60
43697;DHT22;29301;47.620;19.560;2023-03-01T02:32:56;5.10;60.60
43697;DHT22;29301;47.620;19.560;2023-03-01T02:35:29;5.10;60.70
43697;DHT22;29301;47.620;19.560;2023-03-01T02:37:56;5.10;60.80
43697;DHT22;29301;47.620;19.560;2023-03-01T02:40:25;5.10;61.00
43697;DHT22;29301;47.620;19.560;2023-03-01T02:42:53;5.10;61.10
43697;DHT22;29301;47.620;19.560;2023-03-01T02:45:19;5.10;61.20
43697;DHT22;29301;47.620;19.560;2023-03-01T02:47:45;5.10;61.30
43697;DHT22;29301;47.620;19.560;2023-03-01T02:50:58;5.00;61.40
43697;DHT22;29301;47.620;19.560;2023-03-01T02:55:40;5.00;61.70
43697;DHT22;29301;47.620;19.560;2023-03-01T02:58:06;5.00;61.90
43697;DHT22;29301;47.620;19.560;2023-03-01T03:00:39;5.00;62.20
43697;DHT22;29301;47.620;19.560;2023-03-01T03:03:12;5.00;62.30
43697;DHT22;29301;47.620;19.560;2023-03-01T03:05:38;5.00;62.20
43697;DHT22;29301;47.620;19.560;2023-03-01T03:08:04;5.00;62.30
43697;DHT22;29301;47.620;19.560;2023-03-01T03:10:31;5.00;62.30
43697;DHT22;29301;47.620;19.560;2023-03-01T03:13:01;5.00;62.20
43697;DHT22;29301;47.620;19.560;2023-03-01T03:15:27;5.00;62.20
43697;DHT22;29301;47.620;19.560;2023-03-01T03:17:53;5.10;62.10
43697;DHT22;29301;47.620;19.560;2023-03-01T03:20:20;5.00;62.10
43697;DHT22;29301;47.620;19.560;2023-03-01T03:22:46;5.00;62.20
43697;DHT22;29301;47.620;19.560;2023-03-01T03:25:12;5.00;62.20
43697;DHT22;29301;47.620;19.560;2023-03-01T03:27:38;5.00;62.30
43697;DHT22;29301;47.620;19.560;2023-03-01T03:30:05;5.00;62.20
43697;DHT22;29301;47.620;19.560;2023-03-01T03:32:40;5.00;62.10
43697;DHT22;29301;47.620;19.560;2023-03-01T03:35:07;5.00;62.20
43697;DHT22;29301;47.620;19.560;2023-03-01T03:37:38;5.00;62.20
43697;DHT22;29301;47.620;19.560;2023-03-01T03:40:22;4.90;62.80
43697;DHT22;29301;47.620;19.560;2023-03-01T03:42:48;4.80;63.30
43697;DHT22;29301;47.620;19.560;2023-03-01T03:45:14;4.80;63.90
43697;DHT22;29301;47.620;19.560;2023-03-01T03:47:39;4.70;64.40
43697;DHT22;29301;47.620;19.560;2023-03-01T03:50:05;4.80;64.50
43697;DHT22;29301;47.620;19.560;2023-03-01T03:52:31;4.90;64.30
43697;DHT22;29301;47.620;19.560;2023-03-01T03:54:56;4.80;64.10
43697;DHT22;29301;47.620;19.560;2023-03-01T03:57:22;4.80;63.80
43697;DHT22;29301;47.620;19.560;2023-03-01T03:59:48;4.80;63.70
43697;DHT22;29301;47.620;19.560;2023-03-01T04:02:14;4.80;63.60
43697;DHT22;29301;47.620;19.560;2023-03-01T04:04:50;4.90;63.50
43697;DHT22;29301;47.620;19.560;2023-03-01T04:07:16;4.90;63.40
43697;DHT22;29301;47.620;19.560;2023-03-01T04:09:42;4.90;63.40
43697;DHT22;29301;47.620;19.560;2023-03-01T04:12:08;4.90;63.30
43697;DHT22;29301;47.620;19.560;2023-03-01T04:14:33;4.90;63.40
43697;DHT22;29301;47.620;19.560;2023-03-01T04:16:59;4.90;63.70
43697;DHT22;29301;47.620;19.560;2023-03-01T04:19:24;4.80;63.80
43697;DHT22;29301;47.620;19.560;2023-03-01T04:21:52;4.80;63.80
43697;DHT22;29301;47.620;19.560;2023-03-01T04:24:18;4.80;63.90
43697;DHT22;29301;47.620;19.560;2023-03-01T04:26:43;4.80;63.30
43697;DHT22;29301;47.620;19.560;2023-03-01T04:29:09;4.80;63.10
43697;DHT22;29301;47.620;19.560;2023-03-01T04:31:34;4.70;63.00
43697;DHT22;29301;47.620;19.560;2023-03-01T04:34:00;4.70;62.90
43697;DHT22;29301;47.620;19.560;2023-03-01T04:36:26;4.60;63.00
43697;DHT22;29301;47.620;19.560;2023-03-01T04:38:52;4.70;63.10
43697;DHT22;29301;47.620;19.560;2023-03-01T04:41:18;4.70;63.10
43697;DHT22;29301;47.620;19.560;2023-03-01T04:43:44;4.70;62.90
43697;DHT22;29301;47.620;19.560;2023-03-01T04:46:14;4.60;62.70
43697;DHT22;29301;47.620;19.560;2023-03-01T04:48:40;4.70;62.90
43697;DHT22;29301;47.620;19.560;2023-03-01T04:51:06;4.60;62.70
43697;DHT22;29301;47.620;19.560;2023-03-01T04:53:33;4.60;62.60
43697;DHT22;29301;47.620;19.560;2023-03-01T04:55:58;4.70;62.70
43697;DHT22;29301;47.620;19.560;2023-03-01T04:58:27;4.70;62.70
43697;DHT22;29301;47.620;19.560;2023-03-01T05:00:53;4.70;62.60
43697;DHT22;29301;47.620;19.560;2023-03-01T05:03:19;4.70;62.40
43697;DHT22;29301;47.620;19.560;2023-03-01T05:05:46;4.70;62.50
43697;DHT22;29301;47.620;19.560;2023-03-01T05:08:11;4.70;62.40
43697;DHT22;29301;47.620;19.560;2023-03-01T05:10:46;4.70;62.40
43697;DHT22;29301;47.620;19.560;2023-03-01T05:13:12;4.70;62.40
43697;DHT22;29301;47.620;19.560;2023-03-01T05:15:39;4.70;62.20
43697;DHT22;29301;47.620;19.560;2023-03-01T05:18:04;4.80;62.20
43697;DHT22;29301;47.620;19.560;2023-03-01T05:20:36;4.80;62.20
43697;DHT22;29301;47.620;19.560;2023-03-01T05:23:02;4.80;62.10
43697;DHT22;29301;47.620;19.560;2023-03-01T05:25:30;4.80;62.00
43697;DHT22;29301;47.620;19.560;2023-03-01T05:28:01;4.70;61.90
43697;DHT22;29301;47.620;19.560;2023-03-01T05:30:30;4.70;61.90
43697;DHT22;29301;47.620;19.560;2023-03-01T05:32:55;4.70;61.90
43697;DHT22;29301;47.620;19.560;2023-03-01T05:35:21;4.70;61.70
43697;DHT22;29301;47.620;19.560;2023-03-01T05:37:47;4.70;61.70
43697;DHT22;29301;47.620;19.560;2023-03-01T05:40:17;4.60;61.80
43697;DHT22;29301;47.620;19.560;2023-03-01T05:42:54;4.50;62.00
43697;DHT22;29301;47.620;19.560;2023-03-01T05:45:20;4.50;62.30
43697;DHT22;29301;47.620;19.560;2023-03-01T05:47:46;4.50;62.40
43697;DHT22;29301;47.620;19.560;2023-03-01T05:50:13;4.50;62.50
43697;DHT22;29301;47.620;19.560;2023-03-01T05:52:39;4.50;62.50
43697;DHT22;29301;47.620;19.560;2023-03-01T05:55:05;4.60;62.40
43697;DHT22;29301;47.620;19.560;2023-03-01T05:57:30;4.60;62.20
43697;DHT22;29301;47.620;19.560;2023-03-01T05:59:56;4.70;62.00
43697;DHT22;29301;47.620;19.560;2023-03-01T06:02:21;4.70;61.70
43697;DHT22;29301;47.620;19.560;2023-03-01T06:04:47;4.70;61.60
43697;DHT22;29301;47.620;19.560;2023-03-01T06:07:13;4.60;61.70
43697;DHT22;29301;47.620;19.560;2023-03-01T06:09:38;4.60;61.60
43697;DHT22;29301;47.620;19.560;2023-03-01T06:12:04;4.60;61.60
43697;DHT22;29301;47.620;19.560;2023-03-01T06:14:30;4.70;61.60
43697;DHT22;29301;47.620;19.560;2023-03-01T06:16:55;4.70;61.40
43697;DHT22;29301;47.620;19.560;2023-03-01T06:19:21;4.70;61.50
43697;DHT22;29301;47.620;19.560;2023-03-01T06:21:46;4.70;61.60
43697;DHT22;29301;47.620;19.560;2023-03-01T06:24:12;4.70;61.60
43697;DHT22;29301;47.620;19.560;2023-03-01T06:26:37;4.80;61.60
43697;DHT22;29301;47.620;19.560;2023-03-01T06:29:03;4.70;61.30
43697;DHT22;29301;47.620;19.560;2023-03-01T06:31:29;4.70;61.20
43697;DHT22;29301;47.620;19.560;2023-03-01T06:33:54;4.80;61.30
43697;DHT22;29301;47.620;19.560;2023-03-01T06:36:20;4.80;61.30
43697;DHT22;29301;47.620;19.560;2023-03-01T06:38:47;4.90;61.40
43697;DHT22;29301;47.620;19.560;2023-03-01T06:41:12;4.90;61.40
43697;DHT22;29301;47.620;19.560;2023-03-01T06:43:38;4.90;61.10
43697;DHT22;29301;47.620;19.560;2023-03-01T06:46:04;4.90;61.00
43697;DHT22;29301;47.620;19.560;2023-03-01T06:48:30;4.90;60.90
43697;DHT22;29301;47.620;19.560;2023-03-01T06:50:57;4.90;60.70
43697;DHT22;29301;47.620;19.560;2023-03-01T06:53:23;4.80;60.70
43697;DHT22;29301;47.620;19.560;2023-03-01T06:55:53;4.80;60.80
43697;DHT22;29301;47.620;19.560;2023-03-01T06:58:19;4.80;60.90
43697;DHT22;29301;47.620;19.560;2023-03-01T07:00:44;4.90;60.50
43697;DHT22;29301;47.620;19.560;2023-03-01T07:03:10;4.90;60.10
43697;DHT22;29301;47.620;19.560;2023-03-01T07:05:35;5.00;59.90
43697;DHT22;29301;47.620;19.560;2023-03-01T07:08:01;5.10;59.60
43697;DHT22;29301;47.620;19.560;2023-03-01T07:10:26;5.20;59.30
43697;DHT22;29301;47.620;19.560;2023-03-01T07:12:56;5.30;58.90
43697;DHT22;29301;47.620;19.560;2023-03-01T07:15:22;5.30;58.30
43697;DHT22;29301;47.620;19.560;2023-03-01T07:17:47;5.40;57.80
43697;DHT22;29301;47.620;19.560;2023-03-01T07:20:16;5.50;59.10
43697;DHT22;29301;47.620;19.560;2023-03-01T07:22:42;5.80;64.00
43697;DHT22;29301;47.620;19.560;2023-03-01T07:25:08;5.80;58.90
43697;DHT22;29301;47.620;19.560;2023-03-01T07:27:33;5.90;59.40
43697;DHT22;29301;47.620;19.560;2023-03-01T07:29:59;5.90;57.10
43697;DHT22;29301;47.620;19.560;2023-03-01T07:32:25;5.90;56.40
43697;DHT22;29301;47.620;19.560;2023-03-01T07:34:50;5.80;56.20
43697;DHT22;29301;47.620;19.560;2023-03-01T07:37:16;5.80;57.00
43697;DHT22;29301;47.620;19.560;2023-03-01T07:39:42;5.80;57.20
43697;DHT22;29301;47.620;19.560;2023-03-01T07:42:07;5.90;57.50
43697;DHT22;29301;47.620;19.560;2023-03-01T07:44:33;6.00;60.00
43697;DHT22;29301;47.620;19.560;2023-03-01T07:47:00;6.50;78.50
43697;DHT22;29301;47.620;19.560;2023-03-01T07:49:25;7.20;87.80
43697;DHT22;29301;47.620;19.560;2023-03-01T07:51:54;7.30;71.40
43697;DHT22;29301;47.620;19.560;2023-03-01T07:54:20;7.50;78.60
43697;DHT22;29301;47.620;19.560;2023-03-01T07:56:45;7.30;63.90
43697;DHT22;29301;47.620;19.560;2023-03-01T07:59:11;7.60;90.20
43697;DHT22;29301;47.620;19.560;2023-03-01T08:01:36;8.20;96.40
43697;DHT22;29301;47.620;19.560;2023-03-01T08:04:02;8.60;94.20
43697;DHT22;29301;47.620;19.560;2023-03-01T08:06:29;8.90;91.50
43697;DHT22;29301;47.620;19.560;2023-03-01T08:08:55;9.00;90.60
43697;DHT22;29301;47.620;19.560;2023-03-01T08:11:21;9.10;81.50
43697;DHT22;29301;47.620;19.560;2023-03-01T08:13:49;9.20;78.00
43697;DHT22;29301;47.620;19.560;2023-03-01T08:16:15;9.10;76.80
43697;DHT22;29301;47.620;19.560;2023-03-01T08:18:41;9.30;78.60
43697;DHT22;29301;47.620;19.560;2023-03-01T08:21:07;9.50;76.60
43697;DHT22;29301;47.620;19.560;2023-03-01T08:23:33;9.70;73.60
43697;DHT22;29301;47.620;19.560;2023-03-01T08:26:03;9.90;68.90
43697;DHT22;29301;47.620;19.560;2023-03-01T08:28:29;10.20;63.10
43697;DHT22;29301;47.620;19.560;2023-03-01T08:30:54;9.90;52.10
43697;DHT22;29301;47.620;19.560;2023-03-01T08:33:20;9.60;49.20
43697;DHT22;29301;47.620;19.560;2023-03-01T08:35:45;9.30;48.70
43697;DHT22;29301;47.620;19.560;2023-03-01T08:38:11;9.00;48.90
43697;DHT22;29301;47.620;19.560;2023-03-01T08:40:36;9.00;48.70
43697;DHT22;29301;47.620;19.560;2023-03-01T08:43:02;9.00;47.20
43697;DHT22;29301;47.620;19.560;2023-03-01T08:45:27;9.00;46.30
43697;DHT22;29301;47.620;19.560;2023-03-01T08:47:53;8.50;47.40
43697;DHT22;29301;47.620;19.560;2023-03-01T08:50:19;8.50;46.60
43697;DHT22;29301;47.620;19.560;2023-03-01T08:52:44;8.40;46.50
43697;DHT22;29301;47.620;19.560;2023-03-01T08:55:10;8.70;46.90
43697;DHT22;29301;47.620;19.560;2023-03-01T08:57:35;9.10;46.70
43697;DHT22;29301;47.620;19.560;2023-03-01T09:00:01;9.40;45.70
43697;DHT22;29301;47.620;19.560;2023-03-01T09:02:28;9.60;44.30
43697;DHT22;29301;47.620;19.560;2023-03-01T09:04:53;9.70;44.50
43697;DHT22;29301;47.620;19.560;2023-03-01T09:07:19;9.90;43.80
43697;DHT22;29301;47.620;19.560;2023-03-01T09:09:44;9.90;43.10
43697;DHT22;29301;47.620;19.560;2023-03-01T09:12:10;10.00;42.60
43697;DHT22;29301;47.620;19.560;2023-03-01T09:14:36;10.20;42.80
43697;DHT22;29301;47.620;19.560;2023-03-01T09:17:04;10.40;42.60
43697;DHT22;29301;47.620;19.560;2023-03-01T09:19:30;10.70;42.10
43697;DHT22;29301;47.620;19.560;2023-03-01T09:21:55;10.70;39.90
43697;DHT22;29301;47.620;19.560;2023-03-01T09:24:23;10.20;39.80
43697;DHT22;29301;47.620;19.560;2023-03-01T09:26:49;10.00;40.10
43697;DHT22;29301;47.620;19.560;2023-03-01T09:29:15;10.10;39.40
43697;DHT22;29301;47.620;19.560;2023-03-01T09:31:42;10.40;38.60
43697;DHT22;29301;47.620;19.560;2023-03-01T09:34:08;10.60;38.40
43697;DHT22;29301;47.620;19.560;2023-03-01T09:36:34;10.70;37.80
43697;DHT22;29301;47.620;19.560;2023-03-01T09:38:59;10.80;37.30
43697;DHT22;29301;47.620;19.560;2023-03-01T09:44:07;10.80;36.90
43697;DHT22;29301;47.620;19.560;2023-03-01T09:46:37;10.90;38.00
43697;DHT22;29301;47.620;19.560;2023-03-01T09:49:15;11.30;37.70
43697;DHT22;29301;47.620;19.560;2023-03-01T09:51:42;11.50;37.40
43697;DHT22;29301;47.620;19.560;2023-03-01T09:54:11;11.80;37.20
43697;DHT22;29301;47.620;19.560;2023-03-01T09:56:41;11.90;35.40
43697;DHT22;29301;47.620;19.560;2023-03-01T09:59:29;11.60;35.10
43697;DHT22;29301;47.620;19.560;2023-03-01T10:04:26;12.00;35.50
43697;DHT22;29301;47.620;19.560;2023-03-01T10:09:27;11.60;35.20
43697;DHT22;29301;47.620;19.560;2023-03-01T10:11:54;11.80;34.40
43697;DHT22;29301;47.620;19.560;2023-03-01T10:19:43;11.80;34.70
43697;DHT22;29301;47.620;19.560;2023-03-01T10:22:18;11.70;34.70
43697;DHT22;29301;47.620;19.560;2023-03-01T10:24:46;11.60;33.60
43697;DHT22;29301;47.620;19.560;2023-03-01T10:27:22;11.40;34.40
43697;DHT22;29301;47.620;19.560;2023-03-01T10:32:20;11.80;35.60
43697;DHT22;29301;47.620;19.560;2023-03-01T10:34:47;12.00;34.30
43697;DHT22;29301;47.620;19.560;2023-03-01T10:37:14;11.70;34.10
43697;DHT22;29301;47.620;19.560;2023-03-01T10:42:34;11.80;34.40
43697;DHT22;29301;47.620;19.560;2023-03-01T10:50:33;12.10;33.10
43697;DHT22;29301;47.620;19.560;2023-03-01T10:53:00;11.90;33.50
43697;DHT22;29301;47.620;19.560;2023-03-01T10:55:27;11.40;33.90
43697;DHT22;29301;47.620;19.560;2023-03-01T10:58:06;11.50;34.90
43697;DHT22;29301;47.620;19.560;2023-03-01T11:00:31;11.30;34.60
43697;DHT22;29301;47.620;19.560;2023-03-01T11:05:24;11.70;34.90
43697;DHT22;29301;47.620;19.560;2023-03-01T11:10:17;11.70;33.90
43697;DHT22;29301;47.620;19.560;2023-03-01T11:12:42;11.70;35.10
43697;DHT22;29301;47.620;19.560;2023-03-01T11:15:15;11.90;35.10
43697;DHT22;29301;47.620;19.560;2023-03-01T11:17:44;12.10;35.00
43697;DHT22;29301;47.620;19.560;2023-03-01T11:22:47;12.10;33.90
43697;DHT22;29301;47.620;19.560;2023-03-01T11:25:13;12.20;33.90
43697;DHT22;29301;47.620;19.560;2023-03-01T11:27:40;12.10;33.10
43697;DHT22;29301;47.620;19.560;2023-03-01T11:30:13;12.10;33.30
43697;DHT22;29301;47.620;19.560;2023-03-01T11:32:53;11.80;33.60
43697;DHT22;29301;47.620;19.560;2023-03-01T11:35:22;11.50;33.90
43697;DHT22;29301;47.620;19.560;2023-03-01T11:40:25;11.10;35.00
43697;DHT22;29301;47.620;19.560;2023-03-01T11:45:16;11.50;35.30
43697;DHT22;29301;47.620;19.560;2023-03-01T11:47:52;11.60;35.50
43697;DHT22;29301;47.620;19.560;2023-03-01T11:55:46;11.90;35.00
43697;DHT22;29301;47.620;19.560;2023-03-01T12:03:33;12.30;34.00
43697;DHT22;29301;47.620;19.560;2023-03-01T12:08:53;11.90;33.40
43697;DHT22;29301;47.620;19.560;2023-03-01T12:11:30;11.80;34.20
43697;DHT22;29301;47.620;19.560;2023-03-01T12:22:01;12.00;34.20
43697;DHT22;29301;47.620;19.560;2023-03-01T12:32:06;11.40;35.30
43697;DHT22;29301;47.620;19.560;2023-03-01T12:37:50;11.40;35.50
43697;DHT22;29301;47.620;19.560;2023-03-01T12:51:08;11.20;37.00
43697;DHT22;29301;47.620;19.560;2023-03-01T12:53:36;11.40;36.50
43697;DHT22;29301;47.620;19.560;2023-03-01T12:56:17;11.50;35.80
43697;DHT22;29301;47.620;19.560;2023-03-01T12:58:50;11.60;35.70
43697;DHT22;29301;47.620;19.560;2023-03-01T13:01:26;11.40;36.00
43697;DHT22;29301;47.620;19.560;2023-03-01T13:11:28;11.50;35.70
43697;DHT22;29301;47.620;19.560;2023-03-01T13:14:23;11.50;35.70
43697;DHT22;29301;47.620;19.560;2023-03-01T13:16:40;11.50;35.70
43697;DHT22;29301;47.620;19.560;2023-03-01T13:19:24;11.10;35.90
43697;DHT22;29301;47.620;19.560;2023-03-01T13:21:50;11.10;37.30
43697;DHT22;29301;47.620;19.560;2023-03-01T13:32:26;11.20;36.80
43697;DHT22;29301;47.620;19.560;2023-03-01T13:34:57;11.30;36.70
43697;DHT22;29301;47.620;19.560;2023-03-01T13:37:25;11.30;36.20
43697;DHT22;29301;47.620;19.560;2023-03-01T13:39:51;11.40;36.70
43697;DHT22;29301;47.620;19.560;2023-03-01T13:42:34;11.50;36.50
43697;DHT22;29301;47.620;19.560;2023-03-01T13:45:00;11.60;36.50
43697;DHT22;29301;47.620;19.560;2023-03-01T13:47:26;11.70;36.40
43697;DHT22;29301;47.620;19.560;2023-03-01T13:50:02;11.70;35.80
43697;DHT22;29301;47.620;19.560;2023-03-01T13:52:38;11.60;36.00
43697;DHT22;29301;47.620;19.560;2023-03-01T13:57:39;11.60;35.70
43697;DHT22;29301;47.620;19.560;2023-03-01T14:00:05;11.60;35.60
43697;DHT22;29301;47.620;19.560;2023-03-01T14:02:31;11.50;35.60
43697;DHT22;29301;47.620;19.560;2023-03-01T14:04:57;11.40;35.70
43697;DHT22;29301;47.620;19.560;2023-03-01T14:07:23;11.30;35.90
43697;DHT22;29301;47.620;19.560;2023-03-01T14:09:53;11.30;35.50
43697;DHT22;29301;47.620;19.560;2023-03-01T14:17:30;11.20;36.60
43697;DHT22;29301;47.620;19.560;2023-03-01T14:20:14;11.30;36.60
43697;DHT22;29301;47.620;19.560;2023-03-01T14:22:41;11.40;35.70
43697;DHT22;29301;47.620;19.560;2023-03-01T14:27:43;11.00;36.20
43697;DHT22;29301;47.620;19.560;2023-03-01T14:30:16;11.00;36.90
43697;DHT22;29301;47.620;19.560;2023-03-01T14:32:51;11.20;36.90
43697;DHT22;29301;47.620;19.560;2023-03-01T14:35:21;11.30;36.80
43697;DHT22;29301;47.620;19.560;2023-03-01T14:37:47;11.40;36.50
43697;DHT22;29301;47.620;19.560;2023-03-01T14:40:48;11.40;36.50
43697;DHT22;29301;47.620;19.560;2023-03-01T14:43:10;11.40;36.30
43697;DHT22;29301;47.620;19.560;2023-03-01T14:45:37;11.40;36.30
43697;DHT22;29301;47.620;19.560;2023-03-01T14:48:03;11.40;36.40
43697;DHT22;29301;47.620;19.560;2023-03-01T14:50:30;11.40;36.20
43697;DHT22;29301;47.620;19.560;2023-03-01T14:52:58;11.30;35.70
43697;DHT22;29301;47.620;19.560;2023-03-01T14:55:25;11.10;35.70
43697;DHT22;29301;47.620;19.560;2023-03-01T14:57:51;11.10;36.20
43697;DHT22;29301;47.620;19.560;2023-03-01T15:00:18;11.00;36.20
43697;DHT22;29301;47.620;19.560;2023-03-01T15:02:45;10.90;36.40
43697;DHT22;29301;47.620;19.560;2023-03-01T15:05:13;10.90;36.90
43697;DHT22;29301;47.620;19.560;2023-03-01T15:07:40;11.00;36.80
43697;DHT22;29301;47.620;19.560;2023-03-01T15:10:06;11.10;36.70
43697;DHT22;29301;47.620;19.560;2023-03-01T15:12:40;11.10;36.50
43697;DHT22;29301;47.620;19.560;2023-03-01T15:15:23;11.10;36.40
43697;DHT22;29301;47.620;19.560;2023-03-01T15:17:56;10.90;36.40
43697;DHT22;29301;47.620;19.560;2023-03-01T15:20:22;10.90;36.70
43697;DHT22;29301;47.620;19.560;2023-03-01T15:22:51;10.90;36.70
43697;DHT22;29301;47.620;19.560;2023-03-01T15:25:17;11.00;36.70
43697;DHT22;29301;47.620;19.560;2023-03-01T15:27:45;11.00;36.60
43697;DHT22;29301;47.620;19.560;2023-03-01T15:30:21;11.00;36.80
43697;DHT22;29301;47.620;19.560;2023-03-01T15:32:47;10.80;36.60
43697;DHT22;29301;47.620;19.560;2023-03-01T15:35:33;10.70;36.90
43697;DHT22;29301;47.620;19.560;2023-03-01T15:38:00;10.80;37.20
43697;DHT22;29301;47.620;19.560;2023-03-01T15:40:28;10.80;37.10
43697;DHT22;29301;47.620;19.560;2023-03-01T15:42:57;10.70;37.30
43697;DHT22;29301;47.620;19.560;2023-03-01T15:45:24;10.70;37.30
43697;DHT22;29301;47.620;19.560;2023-03-01T15:48:01;10.60;37.40
43697;DHT22;29301;47.620;19.560;2023-03-01T15:50:31;10.50;37.30
43697;DHT22;29301;47.620;19.560;2023-03-01T15:53:00;10.50;37.50
43697;DHT22;29301;47.620;19.560;2023-03-01T15:55:29;10.50;37.60
43697;DHT22;29301;47.620;19.560;2023-03-01T15:58:05;10.40;37.50
43697;DHT22;29301;47.620;19.560;2023-03-01T16:00:34;10.50;37.80
43697;DHT22;29301;47.620;19.560;2023-03-01T16:03:00;10.50;37.90
43697;DHT22;29301;47.620;19.560;2023-03-01T16:05:29;10.30;37.80
43697;DHT22;29301;47.620;19.560;2023-03-01T16:07:55;10.30;38.10
43697;DHT22;29301;47.620;19.560;2023-03-01T16:10:21;10.10;38.50
43697;DHT22;29301;47.620;19.560;2023-03-01T16:12:47;10.00;38.90
43697;DHT22;29301;47.620;19.560;2023-03-01T16:15:20;9.90;39.10
43697;DHT22;29301;47.620;19.560;2023-03-01T16:17:46;9.80;39.20
43697;DHT22;29301;47.620;19.560;2023-03-01T16:20:12;9.80;39.30
43697;DHT22;29301;47.620;19.560;2023-03-01T16:22:43;9.70;39.60
43697;DHT22;29301;47.620;19.560;2023-03-01T16:25:10;9.60;39.90
43697;DHT22;29301;47.620;19.560;2023-03-01T16:27:37;9.40;40.20
43697;DHT22;29301;47.620;19.560;2023-03-01T16:30:04;9.30;40.60
43697;DHT22;29301;47.620;19.560;2023-03-01T16:32:30;9.20;40.90
43697;DHT22;29301;47.620;19.560;2023-03-01T16:34:55;8.90;41.20
43697;DHT22;29301;47.620;19.560;2023-03-01T16:37:21;8.70;41.70
43697;DHT22;29301;47.620;19.560;2023-03-01T16:39:47;8.50;42.10
43697;DHT22;29301;47.620;19.560;2023-03-01T16:42:15;8.40;42.60
43697;DHT22;29301;47.620;19.560;2023-03-01T16:44:41;8.20;42.90
43697;DHT22;29301;47.620;19.560;2023-03-01T16:47:07;8.10;43.30
43697;DHT22;29301;47.620;19.560;2023-03-01T16:49:32;8.00;43.60
43697;DHT22;29301;47.620;19.560;2023-03-01T16:51:58;7.80;43.90
43697;DHT22;29301;47.620;19.560;2023-03-01T16:54:24;7.70;44.20
43697;DHT22;29301;47.620;19.560;2023-03-01T16:56:50;7.70;44.50
43697;DHT22;29301;47.620;19.560;2023-03-01T16:59:15;7.60;44.50
43697;DHT22;29301;47.620;19.560;2023-03-01T17:01:41;7.60;44.60
43697;DHT22;29301;47.620;19.560;2023-03-01T17:04:10;7.60;44.70
43697;DHT22;29301;47.620;19.560;2023-03-01T17:06:36;7.50;44.90
43697;DHT22;29301;47.620;19.560;2023-03-01T17:09:01;7.40;45.20
43697;DHT22;29301;47.620;19.560;2023-03-01T17:11:27;7.40;45.40
43697;DHT22;29301;47.620;19.560;2023-03-01T17:13:53;7.40;45.50
43697;DHT22;29301;47.620;19.560;2023-03-01T17:16:19;7.40;45.40
43697;DHT22;29301;47.620;19.560;2023-03-01T17:18:45;7.50;45.30
43697;DHT22;29301;47.620;19.560;2023-03-01T17:21:10;7.60;45.30
43697;DHT22;29301;47.620;19.560;2023-03-01T17:23:38;7.70;45.20
43697;DHT22;29301;47.620;19.560;2023-03-01T17:26:04;7.80;45.00
43697;DHT22;29301;47.620;19.560;2023-03-01T17:28:30;7.90;44.90